sensor_id;sensor_type;location;lat;lon;timestamp;P1;durP1;ratioP1;P2;durP2;ratioP2
73337;SDS011;61575;49.908;35.556;2023-02-11T00:00:03;21.33;;;9.00;;
73337;SDS011;61575;49.908;35.556;2023-02-11T00:06:09;19.90;;;8.23;;
73337;SDS011;61575;49.908;35.556;2023-02-11T00:09:11;19.95;;;9.07;;
73337;SDS011;61575;49.908;35.556;2023-02-11T00:12:13;17.42;;;7.57;;
73337;SDS011;61575;49.908;35.556;2023-02-11T00:15:16;16.02;;;6.53;;
73337;SDS011;61575;49.908;35.556;2023-02-11T00:18:18;19.85;;;8.23;;
73337;SDS011;61575;49.908;35.556;2023-02-11T00:21:21;19.17;;;8.32;;
73337;SDS011;61575;49.908;35.556;2023-02-11T00:24:25;20.90;;;9.35;;
73337;SDS011;61575;49.908;35.556;2023-02-11T00:27:26;16.95;;;7.75;;
73337;SDS011;61575;49.908;35.556;2023-02-11T00:30:28;19.45;;;8.13;;
73337;SDS011;61575;49.908;35.556;2023-02-11T00:33:30;17.30;;;7.90;;
73337;SDS011;61575;49.908;35.556;2023-02-11T00:36:32;18.73;;;8.98;;
73337;SDS011;61575;49.908;35.556;2023-02-11T00:39:35;18.43;;;8.47;;
73337;SDS011;61575;49.908;35.556;2023-02-11T00:42:37;20.58;;;8.68;;
73337;SDS011;61575;49.908;35.556;2023-02-11T00:45:39;17.50;;;8.27;;
73337;SDS011;61575;49.908;35.556;2023-02-11T00:48:41;18.05;;;8.43;;
73337;SDS011;61575;49.908;35.556;2023-02-11T00:51:43;18.87;;;7.83;;
73337;SDS011;61575;49.908;35.556;2023-02-11T00:57:47;19.85;;;7.28;;
73337;SDS011;61575;49.908;35.556;2023-02-11T01:00:50;17.50;;;7.60;;
73337;SDS011;61575;49.908;35.556;2023-02-11T01:03:52;15.83;;;7.33;;
73337;SDS011;61575;49.908;35.556;2023-02-11T01:06:56;19.55;;;7.63;;
73337;SDS011;61575;49.908;35.556;2023-02-11T01:09:59;23.23;;;8.45;;
73337;SDS011;61575;49.908;35.556;2023-02-11T01:13:03;16.45;;;8.15;;
73337;SDS011;61575;49.908;35.556;2023-02-11T01:16:07;17.08;;;8.07;;
73337;SDS011;61575;49.908;35.556;2023-02-11T01:19:10;21.85;;;8.82;;
73337;SDS011;61575;49.908;35.556;2023-02-11T01:22:12;18.70;;;8.30;;
73337;SDS011;61575;49.908;35.556;2023-02-11T01:25:14;22.05;;;8.60;;
73337;SDS011;61575;49.908;35.556;2023-02-11T01:28:17;19.40;;;7.83;;
73337;SDS011;61575;49.908;35.556;2023-02-11T01:31:21;16.73;;;7.25;;
73337;SDS011;61575;49.908;35.556;2023-02-11T01:34:23;16.03;;;7.37;;
73337;SDS011;61575;49.908;35.556;2023-02-11T01:37:25;13.27;;;6.27;;
73337;SDS011;61575;49.908;35.556;2023-02-11T01:40:27;18.85;;;7.70;;
73337;SDS011;61575;49.908;35.556;2023-02-11T01:43:38;17.83;;;7.68;;
73337;SDS011;61575;49.908;35.556;2023-02-11T01:46:50;15.63;;;7.22;;
73337;SDS011;61575;49.908;35.556;2023-02-11T01:49:54;21.63;;;8.68;;
73337;SDS011;61575;49.908;35.556;2023-02-11T01:52:58;19.17;;;7.63;;
73337;SDS011;61575;49.908;35.556;2023-02-11T01:56:20;18.00;;;8.35;;
73337;SDS011;61575;49.908;35.556;2023-02-11T01:59:48;22.75;;;8.70;;
73337;SDS011;61575;49.908;35.556;2023-02-11T02:03:17;19.33;;;7.88;;
73337;SDS011;61575;49.908;35.556;2023-02-11T02:06:33;17.05;;;8.00;;
73337;SDS011;61575;49.908;35.556;2023-02-11T02:09:39;17.85;;;8.05;;
73337;SDS011;61575;49.908;35.556;2023-02-11T02:12:46;19.30;;;8.30;;
73337;SDS011;61575;49.908;35.556;2023-02-11T02:15:59;16.67;;;7.63;;
73337;SDS011;61575;49.908;35.556;2023-02-11T02:36:33;19.75;;;8.52;;
73337;SDS011;61575;49.908;35.556;2023-02-11T02:39:41;16.33;;;8.18;;
73337;SDS011;61575;49.908;35.556;2023-02-11T02:42:47;19.75;;;7.82;;
73337;SDS011;61575;49.908;35.556;2023-02-11T02:45:51;20.55;;;8.68;;
73337;SDS011;61575;49.908;35.556;2023-02-11T02:48:53;16.10;;;7.55;;
73337;SDS011;61575;49.908;35.556;2023-02-11T03:08:05;18.60;;;8.10;;
73337;SDS011;61575;49.908;35.556;2023-02-11T03:11:09;17.17;;;8.10;;
73337;SDS011;61575;49.908;35.556;2023-02-11T03:14:14;16.42;;;7.38;;
73337;SDS011;61575;49.908;35.556;2023-02-11T03:17:18;19.67;;;7.93;;
73337;SDS011;61575;49.908;35.556;2023-02-11T03:20:22;17.73;;;8.23;;
73337;SDS011;61575;49.908;35.556;2023-02-11T03:33:02;19.55;;;7.97;;
73337;SDS011;61575;49.908;35.556;2023-02-11T03:36:14;20.27;;;9.02;;
73337;SDS011;61575;49.908;35.556;2023-02-11T03:39:26;17.30;;;8.35;;
73337;SDS011;61575;49.908;35.556;2023-02-11T03:42:36;21.23;;;8.73;;
73337;SDS011;61575;49.908;35.556;2023-02-11T03:45:46;19.83;;;8.60;;
73337;SDS011;61575;49.908;35.556;2023-02-11T03:48:52;18.08;;;8.68;;
73337;SDS011;61575;49.908;35.556;2023-02-11T03:51:59;21.35;;;8.77;;
73337;SDS011;61575;49.908;35.556;2023-02-11T03:55:05;22.00;;;9.15;;
73337;SDS011;61575;49.908;35.556;2023-02-11T03:58:12;18.00;;;8.55;;
73337;SDS011;61575;49.908;35.556;2023-02-11T04:01:15;16.80;;;8.52;;
73337;SDS011;61575;49.908;35.556;2023-02-11T04:04:17;15.77;;;6.55;;
73337;SDS011;61575;49.908;35.556;2023-02-11T04:07:19;18.67;;;8.83;;
73337;SDS011;61575;49.908;35.556;2023-02-11T04:10:21;21.77;;;9.20;;
73337;SDS011;61575;49.908;35.556;2023-02-11T04:13:23;21.45;;;9.55;;
73337;SDS011;61575;49.908;35.556;2023-02-11T04:16:25;17.63;;;8.60;;
73337;SDS011;61575;49.908;35.556;2023-02-11T04:19:27;21.10;;;9.40;;
73337;SDS011;61575;49.908;35.556;2023-02-11T04:22:30;23.42;;;9.95;;
73337;SDS011;61575;49.908;35.556;2023-02-11T04:28:33;19.52;;;8.27;;
73337;SDS011;61575;49.908;35.556;2023-02-11T04:31:36;22.02;;;9.73;;
73337;SDS011;61575;49.908;35.556;2023-02-11T04:34:38;22.08;;;10.13;;
73337;SDS011;61575;49.908;35.556;2023-02-11T04:37:40;22.73;;;9.93;;
73337;SDS011;61575;49.908;35.556;2023-02-11T04:40:42;27.27;;;11.32;;
73337;SDS011;61575;49.908;35.556;2023-02-11T04:43:44;22.60;;;10.30;;
73337;SDS011;61575;49.908;35.556;2023-02-11T04:46:46;23.33;;;11.10;;
73337;SDS011;61575;49.908;35.556;2023-02-11T04:49:48;22.75;;;10.13;;
73337;SDS011;61575;49.908;35.556;2023-02-11T04:52:50;22.88;;;10.73;;
73337;SDS011;61575;49.908;35.556;2023-02-11T04:55:52;20.55;;;10.05;;
73337;SDS011;61575;49.908;35.556;2023-02-11T04:58:54;20.98;;;11.00;;
73337;SDS011;61575;49.908;35.556;2023-02-11T05:01:56;24.08;;;11.25;;
73337;SDS011;61575;49.908;35.556;2023-02-11T05:04:58;24.90;;;10.83;;
73337;SDS011;61575;49.908;35.556;2023-02-11T05:08:00;23.90;;;10.75;;
73337;SDS011;61575;49.908;35.556;2023-02-11T05:11:02;22.45;;;10.27;;
73337;SDS011;61575;49.908;35.556;2023-02-11T05:14:04;17.20;;;8.35;;
73337;SDS011;61575;49.908;35.556;2023-02-11T05:17:07;26.63;;;10.05;;
73337;SDS011;61575;49.908;35.556;2023-02-11T05:20:09;21.55;;;9.73;;
73337;SDS011;61575;49.908;35.556;2023-02-11T05:23:11;19.33;;;10.02;;
73337;SDS011;61575;49.908;35.556;2023-02-11T05:26:13;23.55;;;10.52;;
73337;SDS011;61575;49.908;35.556;2023-02-11T05:29:15;23.42;;;11.25;;
73337;SDS011;61575;49.908;35.556;2023-02-11T05:32:17;20.73;;;10.32;;
73337;SDS011;61575;49.908;35.556;2023-02-11T05:35:19;24.58;;;11.52;;
73337;SDS011;61575;49.908;35.556;2023-02-11T05:38:20;26.17;;;12.17;;
73337;SDS011;61575;49.908;35.556;2023-02-11T05:41:22;29.02;;;13.02;;
73337;SDS011;61575;49.908;35.556;2023-02-11T05:44:24;35.13;;;16.88;;
73337;SDS011;61575;49.908;35.556;2023-02-11T05:47:26;28.27;;;13.10;;
73337;SDS011;61575;49.908;35.556;2023-02-11T05:50:28;25.90;;;12.15;;
73337;SDS011;61575;49.908;35.556;2023-02-11T05:53:30;23.60;;;11.10;;
73337;SDS011;61575;49.908;35.556;2023-02-11T05:56:32;24.40;;;12.15;;
73337;SDS011;61575;49.908;35.556;2023-02-11T05:59:34;22.05;;;11.38;;
73337;SDS011;61575;49.908;35.556;2023-02-11T06:02:36;22.20;;;11.30;;
73337;SDS011;61575;49.908;35.556;2023-02-11T06:05:37;24.52;;;11.52;;
73337;SDS011;61575;49.908;35.556;2023-02-11T06:08:39;24.52;;;11.52;;
73337;SDS011;61575;49.908;35.556;2023-02-11T06:11:42;20.92;;;11.07;;
73337;SDS011;61575;49.908;35.556;2023-02-11T06:14:43;22.75;;;11.85;;
73337;SDS011;61575;49.908;35.556;2023-02-11T06:17:45;23.35;;;11.50;;
73337;SDS011;61575;49.908;35.556;2023-02-11T06:20:47;26.10;;;12.10;;
73337;SDS011;61575;49.908;35.556;2023-02-11T06:23:49;22.17;;;10.85;;
73337;SDS011;61575;49.908;35.556;2023-02-11T06:26:51;29.88;;;13.10;;
73337;SDS011;61575;49.908;35.556;2023-02-11T06:29:53;52.20;;;21.42;;
73337;SDS011;61575;49.908;35.556;2023-02-11T06:32:54;44.08;;;17.08;;
73337;SDS011;61575;49.908;35.556;2023-02-11T06:35:56;32.13;;;14.40;;
73337;SDS011;61575;49.908;35.556;2023-02-11T06:38:58;27.65;;;13.02;;
73337;SDS011;61575;49.908;35.556;2023-02-11T06:42:00;25.67;;;12.98;;
73337;SDS011;61575;49.908;35.556;2023-02-11T06:45:02;26.35;;;12.75;;
73337;SDS011;61575;49.908;35.556;2023-02-11T06:48:06;25.73;;;13.05;;
73337;SDS011;61575;49.908;35.556;2023-02-11T06:51:09;26.83;;;12.73;;
73337;SDS011;61575;49.908;35.556;2023-02-11T06:54:12;26.65;;;12.60;;
73337;SDS011;61575;49.908;35.556;2023-02-11T06:57:14;28.65;;;14.02;;
73337;SDS011;61575;49.908;35.556;2023-02-11T07:00:16;26.98;;;12.63;;
73337;SDS011;61575;49.908;35.556;2023-02-11T07:03:18;32.53;;;13.90;;
73337;SDS011;61575;49.908;35.556;2023-02-11T07:06:20;30.42;;;13.05;;
73337;SDS011;61575;49.908;35.556;2023-02-11T07:09:24;33.42;;;14.75;;
73337;SDS011;61575;49.908;35.556;2023-02-11T07:12:26;27.20;;;13.25;;
73337;SDS011;61575;49.908;35.556;2023-02-11T07:15:27;27.77;;;13.50;;
73337;SDS011;61575;49.908;35.556;2023-02-11T07:18:29;32.75;;;14.65;;
73337;SDS011;61575;49.908;35.556;2023-02-11T07:21:31;35.70;;;15.88;;
73337;SDS011;61575;49.908;35.556;2023-02-11T07:24:33;33.28;;;15.60;;
73337;SDS011;61575;49.908;35.556;2023-02-11T07:27:35;32.40;;;14.88;;
73337;SDS011;61575;49.908;35.556;2023-02-11T07:30:37;30.23;;;14.45;;
73337;SDS011;61575;49.908;35.556;2023-02-11T07:33:40;29.00;;;12.95;;
73337;SDS011;61575;49.908;35.556;2023-02-11T07:36:43;27.63;;;13.05;;
73337;SDS011;61575;49.908;35.556;2023-02-11T07:39:45;29.10;;;13.95;;
73337;SDS011;61575;49.908;35.556;2023-02-11T07:42:47;29.08;;;13.90;;
73337;SDS011;61575;49.908;35.556;2023-02-11T07:45:49;28.73;;;13.88;;
73337;SDS011;61575;49.908;35.556;2023-02-11T07:48:51;31.10;;;14.18;;
73337;SDS011;61575;49.908;35.556;2023-02-11T07:51:53;32.63;;;15.27;;
73337;SDS011;61575;49.908;35.556;2023-02-11T07:54:55;27.92;;;13.98;;
73337;SDS011;61575;49.908;35.556;2023-02-11T07:57:57;40.20;;;16.48;;
73337;SDS011;61575;49.908;35.556;2023-02-11T08:01:00;31.52;;;15.02;;
73337;SDS011;61575;49.908;35.556;2023-02-11T08:04:03;29.98;;;13.77;;
73337;SDS011;61575;49.908;35.556;2023-02-11T08:07:05;30.97;;;15.10;;
73337;SDS011;61575;49.908;35.556;2023-02-11T08:10:07;30.70;;;14.88;;
73337;SDS011;61575;49.908;35.556;2023-02-11T08:13:09;28.67;;;13.77;;
73337;SDS011;61575;49.908;35.556;2023-02-11T08:16:19;28.58;;;14.70;;
73337;SDS011;61575;49.908;35.556;2023-02-11T08:19:27;29.90;;;15.35;;
73337;SDS011;61575;49.908;35.556;2023-02-11T08:22:32;30.83;;;15.30;;
73337;SDS011;61575;49.908;35.556;2023-02-11T08:25:35;29.27;;;15.05;;
73337;SDS011;61575;49.908;35.556;2023-02-11T08:28:38;29.38;;;15.25;;
73337;SDS011;61575;49.908;35.556;2023-02-11T08:31:41;31.55;;;15.25;;
73337;SDS011;61575;49.908;35.556;2023-02-11T08:34:49;31.17;;;15.77;;
73337;SDS011;61575;49.908;35.556;2023-02-11T08:37:51;28.13;;;14.32;;
73337;SDS011;61575;49.908;35.556;2023-02-11T08:40:53;28.05;;;14.73;;
73337;SDS011;61575;49.908;35.556;2023-02-11T08:43:55;29.40;;;15.52;;
73337;SDS011;61575;49.908;35.556;2023-02-11T08:46:57;30.08;;;15.52;;
73337;SDS011;61575;49.908;35.556;2023-02-11T08:49:59;28.35;;;14.63;;
73337;SDS011;61575;49.908;35.556;2023-02-11T08:53:01;32.40;;;15.32;;
73337;SDS011;61575;49.908;35.556;2023-02-11T08:56:03;31.40;;;15.05;;
73337;SDS011;61575;49.908;35.556;2023-02-11T08:59:06;28.35;;;14.63;;
73337;SDS011;61575;49.908;35.556;2023-02-11T09:02:13;29.30;;;14.38;;
73337;SDS011;61575;49.908;35.556;2023-02-11T09:05:15;34.15;;;16.65;;
73337;SDS011;61575;49.908;35.556;2023-02-11T09:08:17;30.48;;;15.48;;
73337;SDS011;61575;49.908;35.556;2023-02-11T09:11:20;30.27;;;15.73;;
73337;SDS011;61575;49.908;35.556;2023-02-11T09:14:26;34.40;;;16.50;;
73337;SDS011;61575;49.908;35.556;2023-02-11T09:17:28;29.08;;;15.18;;
73337;SDS011;61575;49.908;35.556;2023-02-11T09:20:30;29.25;;;14.65;;
73337;SDS011;61575;49.908;35.556;2023-02-11T09:23:32;29.27;;;15.40;;
73337;SDS011;61575;49.908;35.556;2023-02-11T09:26:35;30.70;;;15.48;;
73337;SDS011;61575;49.908;35.556;2023-02-11T09:29:37;34.53;;;16.80;;
73337;SDS011;61575;49.908;35.556;2023-02-11T09:32:39;27.92;;;14.80;;
73337;SDS011;61575;49.908;35.556;2023-02-11T09:35:41;31.85;;;15.45;;
73337;SDS011;61575;49.908;35.556;2023-02-11T09:38:42;29.45;;;14.23;;
73337;SDS011;61575;49.908;35.556;2023-02-11T09:48:13;30.05;;;15.27;;
73337;SDS011;61575;49.908;35.556;2023-02-11T09:51:42;27.38;;;14.65;;
73337;SDS011;61575;49.908;35.556;2023-02-11T09:54:53;28.27;;;14.80;;
73337;SDS011;61575;49.908;35.556;2023-02-11T09:57:57;26.20;;;13.43;;
73337;SDS011;61575;49.908;35.556;2023-02-11T10:01:22;25.20;;;13.70;;
73337;SDS011;61575;49.908;35.556;2023-02-11T10:08:26;25.02;;;13.30;;
73337;SDS011;61575;49.908;35.556;2023-02-11T10:19:24;33.30;;;14.82;;
73337;SDS011;61575;49.908;35.556;2023-02-11T10:22:36;31.05;;;15.27;;
73337;SDS011;61575;49.908;35.556;2023-02-11T10:25:43;26.92;;;14.70;;
73337;SDS011;61575;49.908;35.556;2023-02-11T10:28:49;28.80;;;14.20;;
73337;SDS011;61575;49.908;35.556;2023-02-11T10:31:55;28.92;;;15.07;;
73337;SDS011;61575;49.908;35.556;2023-02-11T10:35:00;33.30;;;16.98;;
73337;SDS011;61575;49.908;35.556;2023-02-11T10:38:15;29.00;;;14.93;;
73337;SDS011;61575;49.908;35.556;2023-02-11T10:44:33;31.98;;;14.80;;
73337;SDS011;61575;49.908;35.556;2023-02-11T10:47:38;30.77;;;16.58;;
73337;SDS011;61575;49.908;35.556;2023-02-11T10:50:41;30.92;;;16.30;;
73337;SDS011;61575;49.908;35.556;2023-02-11T10:53:44;26.80;;;14.23;;
73337;SDS011;61575;49.908;35.556;2023-02-11T10:56:48;32.70;;;15.73;;
73337;SDS011;61575;49.908;35.556;2023-02-11T10:59:57;26.02;;;14.32;;
73337;SDS011;61575;49.908;35.556;2023-02-11T11:06:31;30.95;;;15.73;;
73337;SDS011;61575;49.908;35.556;2023-02-11T11:09:42;32.47;;;15.98;;
73337;SDS011;61575;49.908;35.556;2023-02-11T11:12:49;29.85;;;16.05;;
73337;SDS011;61575;49.908;35.556;2023-02-11T11:16:36;29.23;;;15.60;;
73337;SDS011;61575;49.908;35.556;2023-02-11T11:19:19;30.42;;;15.77;;
73337;SDS011;61575;49.908;35.556;2023-02-11T11:22:23;31.65;;;14.88;;
73337;SDS011;61575;49.908;35.556;2023-02-11T11:25:28;30.02;;;15.77;;
73337;SDS011;61575;49.908;35.556;2023-02-11T11:32:04;29.25;;;15.38;;
73337;SDS011;61575;49.908;35.556;2023-02-11T11:35:23;30.50;;;14.93;;
73337;SDS011;61575;49.908;35.556;2023-02-11T11:38:28;32.05;;;15.38;;
73337;SDS011;61575;49.908;35.556;2023-02-11T11:41:32;32.53;;;15.85;;
73337;SDS011;61575;49.908;35.556;2023-02-11T11:44:35;30.50;;;16.02;;
73337;SDS011;61575;49.908;35.556;2023-02-11T11:47:59;29.95;;;16.55;;
73337;SDS011;61575;49.908;35.556;2023-02-11T11:51:10;31.83;;;17.48;;
73337;SDS011;61575;49.908;35.556;2023-02-11T11:54:13;29.30;;;16.30;;
73337;SDS011;61575;49.908;35.556;2023-02-11T11:57:20;32.00;;;17.27;;
73337;SDS011;61575;49.908;35.556;2023-02-11T12:27:43;38.17;;;18.67;;
73337;SDS011;61575;49.908;35.556;2023-02-11T12:37:25;32.28;;;16.85;;
73337;SDS011;61575;49.908;35.556;2023-02-11T12:43:46;33.72;;;17.98;;
73337;SDS011;61575;49.908;35.556;2023-02-11T12:46:57;34.40;;;18.53;;
73337;SDS011;61575;49.908;35.556;2023-02-11T12:57:27;34.38;;;17.33;;
73337;SDS011;61575;49.908;35.556;2023-02-11T13:03:50;31.38;;;15.75;;
73337;SDS011;61575;49.908;35.556;2023-02-11T13:07:09;32.08;;;15.98;;
73337;SDS011;61575;49.908;35.556;2023-02-11T13:10:27;35.65;;;16.95;;
73337;SDS011;61575;49.908;35.556;2023-02-11T13:13:33;31.58;;;15.27;;
73337;SDS011;61575;49.908;35.556;2023-02-11T13:16:43;29.17;;;15.60;;
73337;SDS011;61575;49.908;35.556;2023-02-11T13:19:52;29.33;;;15.90;;
73337;SDS011;61575;49.908;35.556;2023-02-11T13:29:28;29.05;;;15.48;;
73337;SDS011;61575;49.908;35.556;2023-02-11T13:38:58;32.90;;;16.58;;
73337;SDS011;61575;49.908;35.556;2023-02-11T13:42:03;34.30;;;17.02;;
73337;SDS011;61575;49.908;35.556;2023-02-11T13:45:15;33.00;;;16.63;;
73337;SDS011;61575;49.908;35.556;2023-02-11T13:48:35;31.25;;;15.95;;
73337;SDS011;61575;49.908;35.556;2023-02-11T13:54:45;33.38;;;16.63;;
73337;SDS011;61575;49.908;35.556;2023-02-11T13:58:33;31.13;;;16.52;;
73337;SDS011;61575;49.908;35.556;2023-02-11T14:01:37;36.05;;;18.25;;
73337;SDS011;61575;49.908;35.556;2023-02-11T14:08:27;32.22;;;16.15;;
73337;SDS011;61575;49.908;35.556;2023-02-11T14:11:49;35.17;;;17.98;;
73337;SDS011;61575;49.908;35.556;2023-02-11T14:15:19;32.10;;;17.00;;
73337;SDS011;61575;49.908;35.556;2023-02-11T14:21:46;36.78;;;17.63;;
73337;SDS011;61575;49.908;35.556;2023-02-11T14:24:52;34.13;;;17.73;;
73337;SDS011;61575;49.908;35.556;2023-02-11T14:28:08;33.97;;;17.27;;
73337;SDS011;61575;49.908;35.556;2023-02-11T14:31:25;33.90;;;17.60;;
73337;SDS011;61575;49.908;35.556;2023-02-11T14:37:45;33.38;;;17.23;;
73337;SDS011;61575;49.908;35.556;2023-02-11T14:41:37;36.60;;;18.20;;
73337;SDS011;61575;49.908;35.556;2023-02-11T14:44:26;36.40;;;18.15;;
73337;SDS011;61575;49.908;35.556;2023-02-11T14:47:35;35.50;;;18.67;;
73337;SDS011;61575;49.908;35.556;2023-02-11T14:50:47;35.47;;;17.92;;
73337;SDS011;61575;49.908;35.556;2023-02-11T14:54:01;36.97;;;18.83;;
73337;SDS011;61575;49.908;35.556;2023-02-11T14:57:18;36.08;;;19.67;;
73337;SDS011;61575;49.908;35.556;2023-02-11T15:00:21;40.63;;;21.80;;
73337;SDS011;61575;49.908;35.556;2023-02-11T15:03:34;43.00;;;21.00;;
73337;SDS011;61575;49.908;35.556;2023-02-11T15:06:38;43.58;;;21.58;;
73337;SDS011;61575;49.908;35.556;2023-02-11T15:09:45;38.03;;;20.52;;
73337;SDS011;61575;49.908;35.556;2023-02-11T15:12:50;40.13;;;20.63;;
73337;SDS011;61575;49.908;35.556;2023-02-11T15:16:26;46.10;;;23.13;;
73337;SDS011;61575;49.908;35.556;2023-02-11T15:22:39;44.22;;;22.55;;
73337;SDS011;61575;49.908;35.556;2023-02-11T15:25:44;45.72;;;23.48;;
73337;SDS011;61575;49.908;35.556;2023-02-11T15:28:56;40.30;;;21.65;;
73337;SDS011;61575;49.908;35.556;2023-02-11T15:32:04;43.85;;;21.85;;
73337;SDS011;61575;49.908;35.556;2023-02-11T15:35:37;49.42;;;24.50;;
73337;SDS011;61575;49.908;35.556;2023-02-11T15:38:41;42.08;;;21.77;;
73337;SDS011;61575;49.908;35.556;2023-02-11T15:41:43;46.40;;;22.50;;
73337;SDS011;61575;49.908;35.556;2023-02-11T15:44:45;43.10;;;21.67;;
73337;SDS011;61575;49.908;35.556;2023-02-11T15:48:05;38.25;;;21.00;;
73337;SDS011;61575;49.908;35.556;2023-02-11T15:54:20;41.58;;;22.10;;
73337;SDS011;61575;49.908;35.556;2023-02-11T15:57:27;49.25;;;24.08;;
73337;SDS011;61575;49.908;35.556;2023-02-11T16:00:44;48.60;;;23.25;;
73337;SDS011;61575;49.908;35.556;2023-02-11T16:03:48;49.15;;;23.33;;
73337;SDS011;61575;49.908;35.556;2023-02-11T16:06:51;53.33;;;24.08;;
73337;SDS011;61575;49.908;35.556;2023-02-11T16:09:56;41.90;;;21.40;;
73337;SDS011;61575;49.908;35.556;2023-02-11T16:16:15;49.03;;;22.58;;
73337;SDS011;61575;49.908;35.556;2023-02-11T16:22:27;43.80;;;22.10;;
73337;SDS011;61575;49.908;35.556;2023-02-11T16:25:36;45.95;;;21.55;;
73337;SDS011;61575;49.908;35.556;2023-02-11T16:28:38;44.63;;;22.83;;
73337;SDS011;61575;49.908;35.556;2023-02-11T16:31:45;46.42;;;22.80;;
73337;SDS011;61575;49.908;35.556;2023-02-11T16:34:49;46.58;;;21.92;;
73337;SDS011;61575;49.908;35.556;2023-02-11T16:37:51;42.15;;;21.05;;
73337;SDS011;61575;49.908;35.556;2023-02-11T16:40:54;43.35;;;22.08;;
73337;SDS011;61575;49.908;35.556;2023-02-11T16:43:56;41.05;;;20.75;;
73337;SDS011;61575;49.908;35.556;2023-02-11T16:46:59;40.22;;;20.40;;
73337;SDS011;61575;49.908;35.556;2023-02-11T16:50:04;39.75;;;20.50;;
73337;SDS011;61575;49.908;35.556;2023-02-11T16:53:09;46.70;;;22.30;;
73337;SDS011;61575;49.908;35.556;2023-02-11T16:56:16;43.83;;;22.38;;
73337;SDS011;61575;49.908;35.556;2023-02-11T16:59:19;44.88;;;22.50;;
73337;SDS011;61575;49.908;35.556;2023-02-11T17:02:21;49.38;;;23.83;;
73337;SDS011;61575;49.908;35.556;2023-02-11T17:05:33;41.50;;;22.08;;
73337;SDS011;61575;49.908;35.556;2023-02-11T17:08:56;71.20;;;29.90;;
73337;SDS011;61575;49.908;35.556;2023-02-11T17:11:58;45.03;;;22.83;;
73337;SDS011;61575;49.908;35.556;2023-02-11T17:15:00;48.28;;;22.95;;
73337;SDS011;61575;49.908;35.556;2023-02-11T17:18:02;42.88;;;21.38;;
73337;SDS011;61575;49.908;35.556;2023-02-11T17:21:05;44.28;;;22.10;;
73337;SDS011;61575;49.908;35.556;2023-02-11T17:24:07;44.40;;;21.38;;
73337;SDS011;61575;49.908;35.556;2023-02-11T17:27:10;44.67;;;22.33;;
73337;SDS011;61575;49.908;35.556;2023-02-11T17:30:12;43.50;;;21.23;;
73337;SDS011;61575;49.908;35.556;2023-02-11T17:33:14;43.35;;;22.48;;
73337;SDS011;61575;49.908;35.556;2023-02-11T17:36:17;45.87;;;21.90;;
73337;SDS011;61575;49.908;35.556;2023-02-11T17:39:19;45.50;;;22.60;;
73337;SDS011;61575;49.908;35.556;2023-02-11T17:42:21;40.97;;;21.73;;
73337;SDS011;61575;49.908;35.556;2023-02-11T17:45:23;45.17;;;23.67;;
73337;SDS011;61575;49.908;35.556;2023-02-11T17:48:25;40.47;;;20.55;;
73337;SDS011;61575;49.908;35.556;2023-02-11T17:51:34;46.42;;;22.45;;
73337;SDS011;61575;49.908;35.556;2023-02-11T17:54:37;43.75;;;22.80;;
73337;SDS011;61575;49.908;35.556;2023-02-11T17:57:40;49.08;;;23.45;;
73337;SDS011;61575;49.908;35.556;2023-02-11T18:00:42;43.72;;;22.00;;
73337;SDS011;61575;49.908;35.556;2023-02-11T18:03:44;45.03;;;22.60;;
73337;SDS011;61575;49.908;35.556;2023-02-11T18:06:46;40.92;;;21.95;;
73337;SDS011;61575;49.908;35.556;2023-02-11T18:09:48;45.15;;;20.42;;
73337;SDS011;61575;49.908;35.556;2023-02-11T18:12:49;44.92;;;21.15;;
73337;SDS011;61575;49.908;35.556;2023-02-11T18:15:51;41.85;;;21.60;;
73337;SDS011;61575;49.908;35.556;2023-02-11T18:18:54;43.83;;;22.38;;
73337;SDS011;61575;49.908;35.556;2023-02-11T18:21:58;41.83;;;22.05;;
73337;SDS011;61575;49.908;35.556;2023-02-11T18:25:01;47.45;;;22.90;;
73337;SDS011;61575;49.908;35.556;2023-02-11T18:28:03;43.33;;;21.52;;
73337;SDS011;61575;49.908;35.556;2023-02-11T18:31:06;42.90;;;21.67;;
73337;SDS011;61575;49.908;35.556;2023-02-11T18:34:09;44.40;;;21.83;;
73337;SDS011;61575;49.908;35.556;2023-02-11T18:37:12;47.38;;;22.38;;
73337;SDS011;61575;49.908;35.556;2023-02-11T18:40:14;43.88;;;21.50;;
73337;SDS011;61575;49.908;35.556;2023-02-11T18:43:17;42.88;;;21.63;;
73337;SDS011;61575;49.908;35.556;2023-02-11T18:46:20;40.22;;;21.42;;
73337;SDS011;61575;49.908;35.556;2023-02-11T18:49:22;40.97;;;20.83;;
73337;SDS011;61575;49.908;35.556;2023-02-11T18:52:24;40.60;;;20.83;;
73337;SDS011;61575;49.908;35.556;2023-02-11T18:55:26;41.95;;;21.30;;
73337;SDS011;61575;49.908;35.556;2023-02-11T18:58:28;42.25;;;21.15;;
73337;SDS011;61575;49.908;35.556;2023-02-11T19:01:30;43.23;;;21.97;;
73337;SDS011;61575;49.908;35.556;2023-02-11T19:04:34;44.88;;;20.98;;
73337;SDS011;61575;49.908;35.556;2023-02-11T19:07:37;42.92;;;21.38;;
73337;SDS011;61575;49.908;35.556;2023-02-11T19:10:40;30.02;;;16.42;;
73337;SDS011;61575;49.908;35.556;2023-02-11T19:13:44;40.40;;;20.08;;
73337;SDS011;61575;49.908;35.556;2023-02-11T19:16:51;38.78;;;19.58;;
73337;SDS011;61575;49.908;35.556;2023-02-11T19:19:54;43.25;;;21.23;;
73337;SDS011;61575;49.908;35.556;2023-02-11T19:22:56;40.03;;;20.88;;
73337;SDS011;61575;49.908;35.556;2023-02-11T19:25:58;42.30;;;20.43;;
73337;SDS011;61575;49.908;35.556;2023-02-11T19:29:00;44.80;;;20.85;;
73337;SDS011;61575;49.908;35.556;2023-02-11T19:32:03;42.65;;;20.83;;
73337;SDS011;61575;49.908;35.556;2023-02-11T19:35:09;41.17;;;20.67;;
73337;SDS011;61575;49.908;35.556;2023-02-11T19:38:11;44.07;;;20.87;;
73337;SDS011;61575;49.908;35.556;2023-02-11T19:41:14;41.67;;;19.88;;
73337;SDS011;61575;49.908;35.556;2023-02-11T19:44:16;40.50;;;20.52;;
73337;SDS011;61575;49.908;35.556;2023-02-11T19:47:18;41.70;;;19.67;;
73337;SDS011;61575;49.908;35.556;2023-02-11T19:50:20;41.75;;;20.30;;
73337;SDS011;61575;49.908;35.556;2023-02-11T19:53:22;39.60;;;19.83;;
73337;SDS011;61575;49.908;35.556;2023-02-11T19:56:25;44.78;;;20.90;;
73337;SDS011;61575;49.908;35.556;2023-02-11T19:59:29;40.90;;;20.08;;
73337;SDS011;61575;49.908;35.556;2023-02-11T20:02:31;43.55;;;20.40;;
73337;SDS011;61575;49.908;35.556;2023-02-11T20:05:33;38.83;;;19.67;;
73337;SDS011;61575;49.908;35.556;2023-02-11T20:08:35;32.53;;;15.90;;
73337;SDS011;61575;49.908;35.556;2023-02-11T20:11:38;36.67;;;18.95;;
73337;SDS011;61575;49.908;35.556;2023-02-11T20:14:41;45.83;;;21.23;;
73337;SDS011;61575;49.908;35.556;2023-02-11T20:17:43;41.80;;;19.60;;
73337;SDS011;61575;49.908;35.556;2023-02-11T20:20:45;38.43;;;18.93;;
73337;SDS011;61575;49.908;35.556;2023-02-11T20:23:47;38.70;;;19.17;;
73337;SDS011;61575;49.908;35.556;2023-02-11T20:26:50;38.80;;;19.77;;
73337;SDS011;61575;49.908;35.556;2023-02-11T20:29:56;41.30;;;19.02;;
73337;SDS011;61575;49.908;35.556;2023-02-11T20:32:58;49.15;;;21.25;;
73337;SDS011;61575;49.908;35.556;2023-02-11T20:36:01;42.72;;;19.85;;